Terminal Aerodrome Forecast
Issued by NWS Quad Cities IA IL

Home | Current Version | Previous Version | Text Only | Print | Product List | Glossary On
Versions: 1 2 3 4 5 6 7 8 9 10 11 12 13 14 15 16 17
000
FTUS43 KDVN 170900 AAA
TAFMLI
TAF AMD
KMLI 170954Z 1710/1806 20014G22KT P6SM SCT020 BKN250
     FM171100 26012G19KT P6SM SCT015 BKN025
      TEMPO 1711/1715 BKN015
     FM171500 32010KT P6SM SCT020 BKN150
     FM180100 29004KT P6SM SCT250=

USA.gov is the U.S. government's official web portal to all federal, state and local government web resources and services.